createdAt,value
2023-02-22T00:00:01.796Z,7.42
2023-02-22T00:01:02.281Z,7.42
2023-02-22T00:02:01.748Z,7.41
2023-02-22T00:03:02.367Z,7.42
2023-02-22T00:04:01.717Z,7.42
2023-02-22T00:05:02.230Z,7.42
2023-02-22T00:06:01.629Z,7.43
2023-02-22T00:07:03.797Z,7.43
2023-02-22T00:08:03.320Z,7.43
2023-02-22T00:09:03.715Z,7.43
2023-02-22T00:10:03.268Z,7.43
2023-02-22T00:11:03.723Z,7.44
2023-02-22T00:12:03.173Z,7.45
2023-02-22T00:13:01.953Z,7.45
2023-02-22T00:14:01.486Z,7.45
2023-02-22T00:15:01.879Z,7.46
2023-02-22T00:16:01.473Z,7.46
2023-02-22T00:17:01.875Z,7.46
2023-02-22T00:18:02.999Z,7.45
2023-02-22T00:19:01.812Z,7.46
2023-02-22T00:20:03.963Z,7.45
2023-02-22T00:21:01.847Z,7.45
2023-02-22T00:22:02.289Z,7.45
2023-02-22T00:23:03.399Z,7.45
2023-02-22T00:24:03.877Z,7.46
2023-02-22T00:25:01.720Z,7.45
2023-02-22T00:26:02.222Z,7.45
2023-02-22T00:27:01.626Z,7.44
2023-02-22T00:28:03.802Z,7.43
2023-02-22T00:29:01.639Z,7.44
2023-02-22T00:30:03.806Z,7.44
2023-02-22T00:31:01.572Z,7.43
2023-02-22T00:32:02.122Z,7.41
2023-02-22T00:33:01.564Z,7.4
2023-02-22T00:34:03.720Z,7.4
2023-02-22T00:35:01.478Z,7.4
2023-02-22T00:36:01.979Z,7.39
2023-02-22T00:37:03.106Z,7.39
2023-02-22T00:38:03.642Z,7.38
2023-02-22T00:39:01.406Z,7.37
2023-02-22T00:40:03.554Z,7.35
2023-02-22T00:41:01.391Z,7.37
2023-02-22T00:42:03.576Z,7.37
2023-02-22T00:43:01.308Z,7.35
2023-02-22T00:44:01.793Z,7.35
2023-02-22T00:45:02.279Z,7.34
2023-02-22T00:46:01.750Z,7.33
2023-02-22T00:47:03.883Z,7.32
2023-02-22T00:48:01.718Z,7.32
2023-02-22T00:49:03.889Z,7.32
2023-02-22T00:50:03.313Z,7.31
2023-02-22T00:51:02.116Z,7.31
2023-02-22T00:52:01.662Z,7.3
2023-02-22T00:53:02.127Z,7.3
2023-02-22T00:54:01.552Z,7.3
2023-02-22T00:55:02.037Z,7.3
2023-02-22T00:56:03.160Z,7.3
2023-02-22T00:57:03.751Z,7.3
2023-02-22T00:58:01.475Z,7.31
2023-02-22T00:59:01.960Z,7.3
2023-02-22T01:00:01.480Z,7.29
2023-02-22T01:01:02.031Z,7.28
2023-02-22T01:02:01.435Z,7.27
2023-02-22T01:03:01.935Z,7.27
2023-02-22T01:04:01.400Z,7.27
2023-02-22T01:05:01.923Z,7.28
2023-02-22T01:06:01.328Z,7.28
2023-02-22T01:07:01.788Z,7.28
2023-02-22T01:08:01.346Z,7.28
2023-02-22T01:09:03.480Z,7.27
2023-02-22T01:10:02.272Z,7.27
2023-02-22T01:11:01.720Z,7.27
2023-02-22T01:12:03.992Z,7.27
2023-02-22T01:13:01.724Z,7.28
2023-02-22T01:14:02.194Z,7.28
2023-02-22T01:15:01.640Z,7.29
2023-02-22T01:16:02.204Z,7.29
2023-02-22T01:17:01.643Z,7.29
2023-02-22T01:18:03.804Z,7.29
2023-02-22T01:19:03.321Z,7.29
2023-02-22T01:20:02.136Z,7.28
2023-02-22T01:21:01.567Z,7.28
2023-02-22T01:22:02.046Z,7.28
2023-02-22T01:23:01.587Z,7.28
2023-02-22T01:24:02.048Z,7.28
2023-02-22T01:25:01.496Z,7.28
2023-02-22T01:26:01.963Z,7.28
2023-02-22T01:27:01.472Z,7.28
2023-02-22T01:28:01.972Z,7.28
2023-02-22T01:29:01.480Z,7.27
2023-02-22T01:30:01.951Z,7.27
2023-02-22T01:31:01.606Z,7.27
2023-02-22T01:32:01.957Z,7.26
2023-02-22T01:33:03.135Z,7.26
2023-02-22T01:34:01.891Z,7.26
2023-02-22T01:35:01.320Z,7.26
2023-02-22T01:36:01.791Z,7.26
2023-02-22T01:38:01.800Z,7.25
2023-02-22T01:39:02.300Z,7.25
2023-02-22T01:40:01.793Z,7.25
2023-02-22T01:41:02.268Z,7.24
2023-02-22T01:42:01.724Z,7.24
2023-02-22T01:43:02.220Z,7.24
2023-02-22T01:44:03.400Z,7.23
2023-02-22T01:45:02.190Z,7.23
2023-02-22T01:46:01.790Z,7.23
2023-02-22T01:47:02.237Z,7.23
2023-02-22T01:48:03.384Z,7.23
2023-02-22T01:49:02.193Z,7.22
2023-02-22T01:50:01.665Z,7.2
2023-02-22T01:51:02.127Z,7.22
2023-02-22T01:52:03.340Z,7.2
2023-02-22T01:53:02.139Z,7.22
2023-02-22T01:54:01.567Z,7.2
2023-02-22T01:55:02.038Z,7.19
2023-02-22T01:56:01.580Z,7.19
2023-02-22T01:57:01.821Z,7.19
2023-02-22T01:58:02.285Z,7.2
2023-02-22T01:59:01.807Z,7.19
2023-02-22T02:00:03.946Z,7.18
2023-02-22T02:01:01.712Z,7.19
2023-02-22T02:02:03.890Z,7.19
2023-02-22T02:03:01.728Z,7.19
2023-02-22T02:04:02.267Z,7.2
2023-02-22T02:05:01.660Z,7.2
2023-02-22T02:06:02.101Z,7.2
2023-02-22T02:07:03.317Z,7.19
2023-02-22T02:08:03.806Z,7.19
2023-02-22T02:09:01.560Z,7.19
2023-02-22T02:10:02.049Z,7.19
2023-02-22T02:11:03.162Z,7.2
2023-02-22T02:12:01.950Z,7.2
2023-02-22T02:13:01.480Z,7.2
2023-02-22T02:14:01.991Z,7.19
2023-02-22T02:15:01.397Z,7.19
2023-02-22T02:16:01.881Z,7.2
2023-02-22T02:17:01.583Z,7.2
2023-02-22T02:18:01.893Z,7.22
2023-02-22T02:19:03.029Z,7.24
2023-02-22T02:20:01.799Z,7.26
2023-02-22T02:21:02.274Z,7.27
2023-02-22T02:22:01.797Z,7.26
2023-02-22T02:23:02.281Z,7.26
2023-02-22T02:24:01.705Z,7.26
2023-02-22T02:25:03.896Z,7.26
2023-02-22T02:26:01.720Z,7.25
2023-02-22T02:27:03.875Z,7.26
2023-02-22T02:28:01.634Z,7.26
2023-02-22T02:29:02.118Z,7.28
2023-02-22T02:30:01.646Z,7.29
2023-02-22T02:31:03.849Z,7.29
2023-02-22T02:32:01.921Z,7.29
2023-02-22T02:33:02.034Z,7.3
2023-02-22T02:34:01.589Z,7.29
2023-02-22T02:35:02.038Z,7.29
2023-02-22T02:36:01.480Z,7.29
2023-02-22T02:37:01.967Z,7.29
2023-02-22T02:38:01.481Z,7.28
2023-02-22T02:39:03.657Z,7.27
2023-02-22T02:40:01.428Z,7.27
2023-02-22T02:41:01.881Z,7.27
2023-02-22T02:42:03.080Z,7.26
2023-02-22T02:43:01.875Z,7.25
2023-02-22T02:44:01.309Z,7.25
2023-02-22T02:45:01.819Z,7.24
2023-02-22T02:46:02.277Z,7.24
2023-02-22T02:47:03.472Z,7.24
2023-02-22T02:48:03.881Z,7.24
2023-02-22T02:49:01.746Z,7.24
2023-02-22T02:50:03.881Z,7.24
2023-02-22T02:51:01.634Z,7.23
2023-02-22T02:52:02.125Z,7.23
2023-02-22T02:53:01.648Z,7.22
2023-02-22T02:54:03.827Z,7.23
2023-02-22T02:55:01.548Z,7.23
2023-02-22T02:56:02.991Z,7.22
2023-02-22T02:57:02.835Z,7.22
2023-02-22T02:58:02.191Z,7.2
2023-02-22T02:59:01.718Z,7.2
2023-02-22T03:00:02.204Z,7.2
2023-02-22T03:01:03.316Z,7.2
2023-02-22T03:02:02.111Z,7.2
2023-02-22T03:03:01.653Z,7.2
2023-02-22T03:04:02.120Z,7.2
2023-02-22T03:05:01.584Z,7.19
2023-02-22T03:06:03.713Z,7.19
2023-02-22T03:07:01.573Z,7.18
2023-02-22T03:08:03.638Z,7.18
2023-02-22T03:09:01.469Z,7.19
2023-02-22T03:10:01.979Z,7.19
2023-02-22T03:11:01.394Z,7.2
2023-02-22T03:12:01.876Z,7.2
2023-02-22T03:13:01.313Z,7.22
2023-02-22T03:14:01.797Z,7.22
2023-02-22T03:16:01.884Z,7.24
2023-02-22T03:17:02.280Z,7.25
2023-02-22T03:18:01.715Z,7.25
2023-02-22T03:19:03.960Z,7.26
2023-02-22T03:20:01.796Z,7.27
2023-02-22T03:21:02.190Z,7.27
2023-02-22T03:22:03.317Z,7.28
2023-02-22T03:23:03.820Z,7.28
2023-02-22T03:24:01.650Z,7.29
2023-02-22T03:25:02.212Z,7.28
2023-02-22T03:26:03.240Z,7.28
2023-02-22T03:27:02.063Z,7.27
2023-02-22T03:28:03.233Z,7.27
2023-02-22T03:29:02.046Z,7.26
2023-02-22T03:30:01.523Z,7.26
2023-02-22T03:31:02.156Z,7.26
2023-02-22T03:32:03.200Z,7.25
2023-02-22T03:33:01.993Z,7.25
2023-02-22T03:34:01.453Z,7.25
2023-02-22T03:35:03.600Z,7.25
2023-02-22T03:36:01.398Z,7.23
2023-02-22T03:37:01.875Z,7.23
2023-02-22T03:38:01.321Z,7.2
2023-02-22T03:39:01.804Z,7.2
2023-02-22T03:40:02.287Z,7.2
2023-02-22T03:41:01.815Z,7.22
2023-02-22T03:42:02.288Z,7.22
2023-02-22T03:43:03.426Z,7.2
2023-02-22T03:44:03.906Z,7.2
2023-02-22T03:45:01.768Z,7.19
2023-02-22T03:46:02.246Z,7.2
2023-02-22T03:47:03.320Z,7.2
2023-02-22T03:48:02.159Z,7.2
2023-02-22T03:49:01.657Z,7.22
2023-02-22T03:50:03.793Z,7.22
2023-02-22T03:51:03.243Z,7.22
2023-02-22T03:52:02.060Z,7.23
2023-02-22T03:53:01.565Z,7.23
2023-02-22T03:54:02.064Z,7.22
2023-02-22T03:55:01.485Z,7.22
2023-02-22T03:56:02.934Z,7.22
2023-02-22T03:57:01.650Z,7.23
2023-02-22T03:58:02.123Z,7.22
2023-02-22T03:59:01.650Z,7.22
2023-02-22T04:00:02.160Z,7.22
2023-02-22T04:01:03.234Z,7.2
2023-02-22T04:02:02.056Z,7.19
2023-02-22T04:03:01.559Z,7.19
2023-02-22T04:04:01.966Z,7.19
2023-02-22T04:05:01.580Z,7.18
2023-02-22T04:06:03.645Z,7.18
2023-02-22T04:07:03.093Z,7.18
2023-02-22T04:08:01.893Z,7.18
2023-02-22T04:09:01.323Z,7.18
2023-02-22T04:10:01.826Z,7.17
2023-02-22T04:11:02.288Z,7.17
2023-02-22T04:12:01.732Z,7.17
2023-02-22T04:13:02.230Z,7.17
2023-02-22T04:14:01.730Z,7.17
2023-02-22T04:15:02.211Z,7.17
2023-02-22T04:16:01.670Z,7.16
2023-02-22T04:17:03.801Z,7.15
2023-02-22T04:18:01.677Z,7.12
2023-02-22T04:19:02.165Z,7.12
2023-02-22T04:20:01.587Z,7.12
2023-02-22T04:21:02.053Z,7.12
2023-02-22T04:22:01.566Z,7.12
2023-02-22T04:23:02.065Z,7.12
2023-02-22T04:24:01.527Z,7.12
2023-02-22T04:25:01.981Z,7.12
2023-02-22T04:26:01.501Z,7.12
2023-02-22T04:27:01.964Z,7.13
2023-02-22T04:28:01.418Z,7.13
2023-02-22T04:29:01.915Z,7.12
2023-02-22T04:30:01.425Z,7.12
2023-02-22T04:31:01.934Z,7.13
2023-02-22T04:32:01.355Z,7.13
2023-02-22T04:33:01.816Z,7.14
2023-02-22T04:34:02.278Z,7.14
2023-02-22T04:35:01.840Z,7.13
2023-02-22T04:36:02.274Z,7.12
2023-02-22T04:37:03.405Z,7.12
2023-02-22T04:38:03.896Z,7.12
2023-02-22T04:39:01.743Z,7.1
2023-02-22T04:40:03.952Z,7.09
2023-02-22T04:41:01.650Z,7.1
2023-02-22T04:42:02.136Z,7.11
2023-02-22T04:43:03.329Z,7.11
2023-02-22T04:44:02.132Z,7.11
2023-02-22T04:45:03.282Z,7.12
2023-02-22T04:46:03.807Z,7.1
2023-02-22T04:47:01.575Z,7.08
2023-02-22T04:48:02.047Z,7.08
2023-02-22T04:49:01.483Z,7.07
2023-02-22T04:50:01.972Z,7.07
2023-02-22T04:51:01.517Z,7.07
2023-02-22T04:52:01.961Z,7.08
2023-02-22T04:53:01.417Z,7.09
2023-02-22T04:54:03.585Z,7.09
2023-02-22T04:55:03.076Z,7.09
2023-02-22T04:56:01.932Z,7.09
2023-02-22T04:57:03.013Z,7.08
2023-02-22T04:58:01.820Z,7.08
2023-02-22T04:59:02.297Z,7.08
2023-02-22T05:00:03.491Z,7.08
2023-02-22T05:01:02.318Z,7.08
2023-02-22T05:02:01.800Z,7.08
2023-02-22T05:03:02.206Z,7.08
2023-02-22T05:04:01.729Z,7.08
2023-02-22T05:05:02.343Z,7.08
2023-02-22T05:06:03.356Z,7.07
2023-02-22T05:07:02.123Z,7.07
2023-02-22T05:08:03.325Z,7.07
2023-02-22T05:09:02.234Z,7.07
2023-02-22T05:10:01.584Z,7.07
2023-02-22T05:11:02.045Z,7.05
2023-02-22T05:12:01.581Z,7.04
2023-02-22T05:13:04.027Z,7.04
2023-02-22T05:14:03.169Z,7.05
2023-02-22T05:15:03.629Z,7.05
2023-02-22T05:16:01.506Z,7.05
2023-02-22T05:17:01.984Z,7.05
2023-02-22T05:18:01.413Z,7.04
2023-02-22T05:19:01.883Z,7.05
2023-02-22T05:20:01.403Z,7.04
2023-02-22T05:21:03.569Z,7.02
2023-02-22T05:22:01.405Z,7.01
2023-02-22T05:23:01.892Z,7.01
2023-02-22T05:25:01.817Z,7.02
2023-02-22T05:26:02.284Z,7.02
2023-02-22T05:27:03.496Z,7.03
2023-02-22T05:28:02.272Z,7.04
2023-02-22T05:29:01.719Z,7.04
2023-02-22T05:30:03.880Z,7.05
2023-02-22T05:31:01.751Z,7.04
2023-02-22T05:32:02.298Z,7.02
2023-02-22T05:33:01.758Z,7.02
2023-02-22T05:34:03.873Z,7.03
2023-02-22T05:35:01.630Z,7.03
2023-02-22T05:36:02.119Z,7.03
2023-02-22T05:37:01.672Z,7.02
2023-02-22T05:38:03.806Z,7.02
2023-02-22T05:39:03.233Z,7.03
2023-02-22T05:40:02.032Z,7.03
2023-02-22T05:41:03.232Z,7.03
2023-02-22T05:42:02.041Z,7.02
2023-02-22T05:43:01.495Z,7.02
2023-02-22T05:44:01.977Z,7.02
2023-02-22T05:45:01.475Z,7.03
2023-02-22T05:46:03.635Z,7.03
2023-02-22T05:47:03.076Z,7.04
2023-02-22T05:48:01.864Z,7.04
2023-02-22T05:49:01.456Z,7.03
2023-02-22T05:50:01.890Z,7.04
2023-02-22T05:51:02.988Z,7.04
2023-02-22T05:52:01.892Z,7.04
2023-02-22T05:53:01.342Z,7.05
2023-02-22T05:54:01.820Z,7.05
2023-02-22T05:56:04.655Z,7.07
2023-02-22T05:57:03.083Z,7.07
2023-02-22T05:58:03.557Z,7.07
2023-02-22T05:59:02.995Z,7.07
2023-02-22T06:00:01.798Z,7.05
2023-02-22T06:01:03.395Z,7.05
2023-02-22T06:02:01.857Z,7.05
2023-02-22T06:03:02.271Z,7.05
2023-02-22T06:04:01.720Z,7.07
2023-02-22T06:05:02.215Z,7.08
2023-02-22T06:06:01.712Z,7.09
2023-02-22T06:07:02.220Z,7.1
2023-02-22T06:08:01.630Z,7.1
2023-02-22T06:09:02.140Z,7.09
2023-02-22T06:10:01.827Z,7.08
2023-02-22T06:11:02.122Z,7.09
2023-02-22T06:12:01.545Z,7.1
2023-02-22T06:13:02.042Z,7.1
2023-02-22T06:14:03.149Z,7.12
2023-02-22T06:15:01.975Z,7.12
2023-02-22T06:16:01.507Z,7.12
2023-02-22T06:17:01.972Z,7.12
2023-02-22T06:18:01.396Z,7.12
2023-02-22T06:19:01.885Z,7.12
2023-02-22T06:20:01.408Z,7.11
2023-02-22T06:21:01.916Z,7.11
2023-02-22T06:22:01.356Z,7.12
2023-02-22T06:23:01.798Z,7.12
2023-02-22T06:24:02.393Z,7.12
2023-02-22T06:25:01.825Z,7.12
2023-02-22T06:26:03.966Z,7.12
2023-02-22T06:27:03.434Z,7.12
2023-02-22T06:28:02.198Z,7.12
2023-02-22T06:29:01.629Z,7.13
2023-02-22T06:30:02.210Z,7.12
2023-02-22T06:31:01.642Z,7.13
2023-02-22T06:32:02.263Z,7.13
2023-02-22T06:33:03.277Z,7.14
2023-02-22T06:34:03.714Z,7.14
2023-02-22T06:35:01.588Z,7.16
2023-02-22T06:36:02.088Z,7.17
2023-02-22T06:37:01.484Z,7.19
2023-02-22T06:38:03.639Z,7.2
2023-02-22T06:39:01.393Z,7.22
2023-02-22T06:40:05.517Z,7.22
2023-02-22T06:41:01.437Z,7.23
2023-02-22T06:42:01.946Z,7.25
2023-02-22T06:43:01.326Z,7.26
2023-02-22T06:44:01.796Z,7.27
2023-02-22T06:45:02.289Z,7.29
2023-02-22T06:46:03.541Z,7.3
2023-02-22T06:47:02.278Z,7.32
2023-02-22T06:48:01.726Z,7.33
2023-02-22T06:49:02.214Z,7.35
2023-02-22T06:50:01.737Z,7.38
2023-02-22T06:51:02.213Z,7.4
2023-02-22T06:52:01.651Z,7.41
2023-02-22T06:53:02.112Z,7.42
2023-02-22T06:54:03.314Z,7.43
2023-02-22T06:55:02.154Z,7.44
2023-02-22T06:56:01.652Z,7.45
2023-02-22T06:57:02.066Z,7.46
2023-02-22T06:58:01.564Z,7.47
2023-02-22T06:59:02.870Z,7.48
2023-02-22T07:00:01.518Z,7.49
2023-02-22T07:01:01.978Z,7.5
2023-02-22T07:02:01.504Z,7.54
2023-02-22T07:03:02.042Z,7.55
2023-02-22T07:04:03.074Z,7.56
2023-02-22T07:05:01.907Z,7.58
2023-02-22T07:06:01.411Z,7.59
2023-02-22T07:07:01.925Z,7.6
2023-02-22T07:08:01.327Z,7.61
2023-02-22T07:09:01.806Z,7.62
2023-02-22T07:10:02.317Z,7.62
2023-02-22T07:11:01.827Z,7.63
2023-02-22T07:12:02.296Z,7.64
2023-02-22T07:13:01.742Z,7.67
2023-02-22T07:14:03.944Z,7.68
2023-02-22T07:15:01.728Z,7.68
2023-02-22T07:16:02.350Z,7.7
2023-02-22T07:17:03.332Z,7.71
2023-02-22T07:18:02.195Z,7.73
2023-02-22T07:19:01.657Z,7.74
2023-02-22T07:20:02.122Z,7.76
2023-02-22T07:21:01.663Z,7.77
2023-02-22T07:22:02.131Z,7.79
2023-02-22T07:23:01.648Z,7.81
2023-02-22T07:24:03.979Z,7.82
2023-02-22T07:25:01.581Z,7.83
2023-02-22T07:26:02.044Z,7.85
2023-02-22T07:27:01.562Z,7.86
2023-02-22T07:28:02.036Z,7.88
2023-02-22T07:29:01.567Z,7.9
2023-02-22T07:30:02.050Z,7.92
2023-02-22T07:31:03.173Z,7.93
2023-02-22T07:32:01.979Z,7.97
2023-02-22T07:33:01.552Z,8
2023-02-22T07:34:01.968Z,8.01
2023-02-22T07:35:01.388Z,8.02
2023-02-22T07:36:01.899Z,8.03
2023-02-22T07:37:01.388Z,8.03
2023-02-22T07:38:01.887Z,8.05
2023-02-22T07:39:01.395Z,8.08
2023-02-22T07:40:01.899Z,8.09
2023-02-22T07:41:03.021Z,8.09
2023-02-22T07:42:01.798Z,8.11
2023-02-22T07:43:05.932Z,8.12
2023-02-22T07:44:01.807Z,8.13
2023-02-22T07:45:02.273Z,8.16
2023-02-22T07:46:01.743Z,8.18
2023-02-22T07:47:02.229Z,8.2
2023-02-22T07:48:03.393Z,8.21
2023-02-22T07:49:02.177Z,8.24
2023-02-22T07:50:03.440Z,8.27
2023-02-22T07:51:02.188Z,8.29
2023-02-22T07:52:01.696Z,8.3
2023-02-22T07:53:02.212Z,8.32
2023-02-22T07:54:01.627Z,8.33
2023-02-22T07:55:02.112Z,8.34
2023-02-22T07:56:03.322Z,8.37
2023-02-22T07:57:02.134Z,8.41
2023-02-22T07:58:01.565Z,8.44
2023-02-22T07:59:02.028Z,8.45
2023-02-22T08:00:01.574Z,8.47
2023-02-22T08:01:01.959Z,8.5
2023-02-22T08:02:01.526Z,8.51
2023-02-22T08:03:01.971Z,8.53
2023-02-22T08:04:03.070Z,8.56
2023-02-22T08:05:01.902Z,8.59
2023-02-22T08:06:01.404Z,8.59
2023-02-22T08:07:01.905Z,8.6
2023-02-22T08:09:01.808Z,8.63
2023-02-22T08:10:02.280Z,8.66
2023-02-22T08:11:01.816Z,8.7
2023-02-22T08:12:02.196Z,8.72
2023-02-22T08:13:03.392Z,8.74
2023-02-22T08:14:02.205Z,8.77
2023-02-22T08:15:01.637Z,8.79
2023-02-22T08:16:03.835Z,8.82
2023-02-22T08:17:01.606Z,8.86
2023-02-22T08:18:03.802Z,8.9
2023-02-22T08:19:01.590Z,8.94
2023-02-22T08:20:02.035Z,8.94
2023-02-22T08:21:01.485Z,8.94
2023-02-22T08:22:03.645Z,8.95
2023-02-22T08:23:01.476Z,9
2023-02-22T08:24:01.969Z,9.05
2023-02-22T08:25:01.412Z,9.1
2023-02-22T08:26:01.882Z,9.15
2023-02-22T08:27:03.083Z,9.19
2023-02-22T08:28:03.556Z,9.24
2023-02-22T08:29:02.998Z,9.29
2023-02-22T08:30:01.802Z,9.3
2023-02-22T08:31:02.293Z,9.32
2023-02-22T08:32:01.967Z,9.36
2023-02-22T08:33:02.464Z,9.36
2023-02-22T08:34:03.394Z,9.37
2023-02-22T08:35:02.419Z,9.41
2023-02-22T08:36:03.413Z,9.46
2023-02-22T08:37:02.228Z,9.5
2023-02-22T08:38:03.332Z,9.53
2023-02-22T08:39:02.126Z,9.55
2023-02-22T08:40:03.334Z,9.56
2023-02-22T08:41:02.129Z,9.57
2023-02-22T08:42:01.567Z,9.61
2023-02-22T08:43:03.725Z,9.65
2023-02-22T08:44:01.489Z,9.69
2023-02-22T08:45:01.968Z,9.75
2023-02-22T08:46:01.528Z,9.77
2023-02-22T08:47:01.965Z,9.8
2023-02-22T08:48:03.083Z,9.85
2023-02-22T08:49:01.876Z,9.88
2023-02-22T08:50:01.331Z,9.88
2023-02-22T08:51:01.833Z,9.89
2023-02-22T08:52:02.287Z,9.94
2023-02-22T08:53:01.885Z,9.98
2023-02-22T08:54:03.957Z,10.03
2023-02-22T08:55:02.706Z,10.07
2023-02-22T08:56:01.403Z,10.09
2023-02-22T08:57:01.906Z,10.12
2023-02-22T08:58:01.461Z,10.14
2023-02-22T08:59:01.878Z,10.18
2023-02-22T09:00:01.320Z,10.23
2023-02-22T09:01:01.799Z,10.27
2023-02-22T09:02:03.996Z,10.31
2023-02-22T09:03:01.821Z,10.34
2023-02-22T09:04:02.322Z,10.36
2023-02-22T09:05:01.716Z,10.39
2023-02-22T09:06:02.220Z,10.43
2023-02-22T09:07:01.717Z,10.5
2023-02-22T09:08:03.871Z,10.56
2023-02-22T09:09:01.685Z,10.68
2023-02-22T09:10:03.788Z,10.84
2023-02-22T09:11:01.642Z,10.94
2023-02-22T09:12:02.121Z,11.01
2023-02-22T09:13:01.731Z,11.08
2023-02-22T09:14:02.039Z,11.13
2023-02-22T09:15:03.251Z,11.13
2023-02-22T09:16:03.743Z,11.08
2023-02-22T09:17:01.464Z,11.09
2023-02-22T09:18:01.994Z,11.11
2023-02-22T09:19:01.481Z,11.12
2023-02-22T09:20:03.631Z,11.14
2023-02-22T09:21:03.151Z,11.11
2023-02-22T09:22:01.951Z,11.04
2023-02-22T09:23:01.421Z,11.02
2023-02-22T09:24:01.864Z,11.05
2023-02-22T09:25:15.907Z,11.11
2023-02-22T09:26:03.551Z,11.13
2023-02-22T09:27:01.308Z,11.13
2023-02-22T09:28:01.813Z,11.14
2023-02-22T09:29:02.301Z,11.18
2023-02-22T09:30:01.858Z,11.24
2023-02-22T09:31:02.275Z,11.3
2023-02-22T09:32:01.857Z,11.37
2023-02-22T09:33:04.000Z,11.43
2023-02-22T09:34:04.189Z,11.45
2023-02-22T09:35:03.864Z,11.49
2023-02-22T09:36:01.689Z,11.52
2023-02-22T09:37:02.206Z,11.51
2023-02-22T09:38:01.632Z,11.44
2023-02-22T09:39:02.129Z,11.4
2023-02-22T09:40:01.873Z,11.36
2023-02-22T09:41:03.818Z,11.26
2023-02-22T09:42:01.606Z,11.22
2023-02-22T09:43:03.708Z,11.25
2023-02-22T09:44:01.559Z,11.3
2023-02-22T09:45:02.085Z,11.36
2023-02-22T09:46:01.600Z,11.4
2023-02-22T09:47:02.090Z,11.47
2023-02-22T09:48:11.711Z,11.51
2023-02-22T09:49:01.960Z,11.53
2023-02-22T09:50:03.149Z,11.56
2023-02-22T09:51:01.945Z,11.61
2023-02-22T09:52:01.409Z,11.69
2023-02-22T09:53:01.957Z,11.76
2023-02-22T09:54:01.409Z,11.84
2023-02-22T09:55:02.026Z,11.89
2023-02-22T09:56:03.120Z,11.92
2023-02-22T09:57:01.933Z,11.97
2023-02-22T09:58:03.114Z,12.02
2023-02-22T09:59:01.817Z,12.07
2023-02-22T10:00:02.297Z,12.1
2023-02-22T10:01:01.799Z,12.11
2023-02-22T10:02:02.304Z,12.13
2023-02-22T10:03:01.709Z,12.18
2023-02-22T10:04:02.337Z,12.21
2023-02-22T10:05:01.746Z,12.17
2023-02-22T10:06:02.219Z,12.18
2023-02-22T10:07:01.747Z,12.19
2023-02-22T10:08:02.190Z,12.21
2023-02-22T10:09:03.305Z,12.21
2023-02-22T10:10:02.131Z,12.22
2023-02-22T10:11:01.559Z,12.22
2023-02-22T10:12:02.045Z,12.19
2023-02-22T10:13:01.554Z,12.15
2023-02-22T10:14:02.034Z,12.13
2023-02-22T10:15:01.481Z,12.13
2023-02-22T10:16:01.985Z,12.15
2023-02-22T10:17:01.476Z,12.18
2023-02-22T10:18:01.962Z,12.22
2023-02-22T10:19:03.091Z,12.27
2023-02-22T10:20:01.889Z,12.29
2023-02-22T10:21:01.330Z,12.33
2023-02-22T10:22:01.791Z,12.34
2023-02-22T10:23:02.270Z,12.38
2023-02-22T10:24:01.731Z,12.43
2023-02-22T10:25:02.277Z,12.49
2023-02-22T10:26:01.728Z,12.52
2023-02-22T10:27:02.259Z,12.59
2023-02-22T10:28:03.320Z,12.53
2023-02-22T10:29:03.933Z,12.42
2023-02-22T10:30:03.941Z,12.37
2023-02-22T10:31:02.340Z,12.38
2023-02-22T10:32:01.720Z,12.43
2023-02-22T10:33:03.778Z,12.48
2023-02-22T10:34:01.557Z,12.49
2023-02-22T10:35:02.062Z,12.5
2023-02-22T10:36:01.526Z,12.55
2023-02-22T10:37:01.969Z,12.6
2023-02-22T10:38:01.492Z,12.63
2023-02-22T10:39:02.011Z,12.67
2023-02-22T10:40:01.415Z,12.72
2023-02-22T10:41:03.594Z,12.73
2023-02-22T10:42:03.005Z,12.76
2023-02-22T10:43:01.899Z,12.8
2023-02-22T10:44:01.345Z,12.86
2023-02-22T10:45:01.811Z,12.88
2023-02-22T10:46:04.065Z,12.86
2023-02-22T10:47:01.811Z,12.88
2023-02-22T10:48:02.313Z,12.91
2023-02-22T10:49:03.410Z,12.93
2023-02-22T10:50:02.212Z,13
2023-02-22T10:51:01.722Z,13.05
2023-02-22T10:52:02.220Z,13.05
2023-02-22T10:53:01.700Z,13.08
2023-02-22T10:54:03.124Z,13.12
2023-02-22T10:55:14.631Z,13.12
2023-02-22T10:56:02.361Z,13.01
2023-02-22T10:57:01.819Z,12.96
2023-02-22T10:58:03.887Z,12.86
2023-02-22T10:59:03.445Z,12.84
2023-02-22T11:00:02.201Z,12.86
2023-02-22T11:01:01.747Z,12.86
2023-02-22T11:02:02.196Z,12.84
2023-02-22T11:03:01.647Z,12.86
2023-02-22T11:04:03.799Z,12.92
2023-02-22T11:05:01.619Z,12.99
2023-02-22T11:06:02.125Z,13.03
2023-02-22T11:07:01.579Z,13.05
2023-02-22T11:08:02.056Z,13.05
2023-02-22T11:09:01.558Z,13.05
2023-02-22T11:10:02.040Z,13.06
2023-02-22T11:11:01.475Z,13.05
2023-02-22T11:12:01.956Z,13
2023-02-22T11:13:01.482Z,13
2023-02-22T11:14:01.962Z,13.04
2023-02-22T11:15:01.402Z,13.14
2023-02-22T11:16:01.952Z,13.14
2023-02-22T11:17:01.433Z,13.08
2023-02-22T11:18:01.937Z,13.12
2023-02-22T11:19:03.001Z,13.16
2023-02-22T11:20:01.794Z,13.17
2023-02-22T11:21:02.281Z,13.2
2023-02-22T11:22:01.722Z,13.2
2023-02-22T11:23:02.298Z,13.21
2023-02-22T11:24:01.720Z,13.17
2023-02-22T11:25:02.501Z,13.21
2023-02-22T11:26:01.717Z,13.25
2023-02-22T11:27:02.224Z,13.31
2023-02-22T11:28:01.645Z,13.31
2023-02-22T11:29:02.139Z,13.23
2023-02-22T11:30:01.640Z,13.2
2023-02-22T11:31:02.194Z,13.19
2023-02-22T11:32:01.577Z,13.26
2023-02-22T11:33:03.712Z,13.33
2023-02-22T11:34:01.547Z,13.33
2023-02-22T11:35:09.064Z,13.31
2023-02-22T11:36:01.470Z,13.33
2023-02-22T11:37:01.957Z,13.35
2023-02-22T11:38:01.402Z,13.29
2023-02-22T11:39:01.885Z,13.26
2023-02-22T11:40:01.401Z,13.33
2023-02-22T11:41:01.939Z,13.4
2023-02-22T11:42:02.982Z,13.35
2023-02-22T11:43:01.778Z,13.33
2023-02-22T11:44:01.322Z,13.32
2023-02-22T11:45:03.467Z,13.31
2023-02-22T11:46:04.035Z,13.33
2023-02-22T11:47:01.792Z,13.33
2023-02-22T11:48:02.268Z,13.39
2023-02-22T11:49:03.384Z,13.48
2023-02-22T11:50:03.866Z,13.46
2023-02-22T11:51:01.635Z,13.32
2023-02-22T11:52:02.221Z,13.25
2023-02-22T11:53:02.616Z,13.29
2023-02-22T11:54:01.311Z,13.36
2023-02-22T11:55:01.881Z,13.39
2023-02-22T11:56:02.281Z,13.43
2023-02-22T11:57:01.805Z,13.46
2023-02-22T11:58:02.300Z,13.5
2023-02-22T11:59:01.713Z,13.54
2023-02-22T12:00:02.201Z,13.58
2023-02-22T12:01:01.742Z,13.65
2023-02-22T12:02:02.192Z,13.69
2023-02-22T12:03:03.319Z,13.73
2023-02-22T12:04:02.216Z,13.77
2023-02-22T12:05:01.620Z,13.78
2023-02-22T12:06:02.050Z,13.82
2023-02-22T12:07:01.553Z,13.81
2023-02-22T12:08:10.699Z,13.74
2023-02-22T12:09:01.529Z,13.64
2023-02-22T12:10:01.978Z,13.63
2023-02-22T12:11:03.087Z,13.67
2023-02-22T12:12:01.958Z,13.77
2023-02-22T12:13:01.402Z,13.85
2023-02-22T12:14:01.902Z,13.91
2023-02-22T12:15:02.995Z,13.99
2023-02-22T12:16:01.956Z,14
2023-02-22T12:18:01.793Z,14.04
2023-02-22T12:19:02.305Z,13.98
2023-02-22T12:20:01.799Z,13.88
2023-02-22T12:21:03.941Z,13.82
2023-02-22T12:22:01.719Z,13.78
2023-02-22T12:23:02.201Z,13.74
2023-02-22T12:24:01.660Z,13.76
2023-02-22T12:25:09.450Z,13.75
2023-02-22T12:26:01.645Z,13.77
2023-02-22T12:27:05.748Z,13.74
2023-02-22T12:28:07.874Z,13.67
2023-02-22T12:29:02.052Z,13.67
2023-02-22T12:30:01.594Z,13.7
2023-02-22T12:31:02.115Z,13.75
2023-02-22T12:32:03.201Z,13.75
2023-02-22T12:33:02.186Z,13.77
2023-02-22T12:34:03.338Z,13.83
2023-02-22T12:35:02.018Z,13.78
2023-02-22T12:36:01.407Z,13.75
2023-02-22T12:37:01.893Z,13.78
2023-02-22T12:38:03.124Z,13.75
2023-02-22T12:39:01.844Z,13.7
2023-02-22T12:40:03.011Z,13.65
2023-02-22T12:41:01.788Z,13.64
2023-02-22T12:42:02.285Z,13.63
2023-02-22T12:43:01.810Z,13.63
2023-02-22T12:44:02.321Z,13.66
2023-02-22T12:45:01.738Z,13.64
2023-02-22T12:46:02.291Z,13.67
2023-02-22T12:47:01.731Z,13.74
2023-02-22T12:48:02.227Z,13.79
2023-02-22T12:49:01.658Z,13.84
2023-02-22T12:50:02.127Z,13.86
2023-02-22T12:51:03.320Z,13.86
2023-02-22T12:52:12.400Z,13.84
2023-02-22T12:53:02.517Z,13.88
2023-02-22T12:54:02.045Z,13.85
2023-02-22T12:55:01.564Z,13.82
2023-02-22T12:56:02.066Z,13.84
2023-02-22T12:57:03.211Z,13.81
2023-02-22T12:58:02.016Z,13.76
2023-02-22T12:59:03.167Z,13.74
2023-02-22T13:00:03.842Z,13.74
2023-02-22T13:01:05.775Z,13.73
2023-02-22T13:02:02.021Z,13.73
2023-02-22T13:03:03.027Z,13.76
2023-02-22T13:04:11.411Z,13.81
2023-02-22T13:05:02.355Z,13.9
2023-02-22T13:06:01.805Z,13.99
2023-02-22T13:07:02.281Z,14.05
2023-02-22T13:08:03.415Z,14.01
2023-02-22T13:09:02.200Z,14.01
2023-02-22T13:10:01.714Z,14.06
2023-02-22T13:11:02.203Z,14.04
2023-02-22T13:12:03.320Z,14.04
2023-02-22T13:13:02.125Z,14.03
2023-02-22T13:14:01.651Z,14.01
2023-02-22T13:15:02.122Z,13.98
2023-02-22T13:16:03.345Z,13.97
2023-02-22T13:17:02.066Z,13.98
2023-02-22T13:18:03.229Z,13.98